createdAt,value
2023-05-10T00:01:28.373Z,26.13
2023-05-10T00:03:50.588Z,25.20
2023-05-10T00:06:13.087Z,27.80
2023-05-10T00:08:34.814Z,28.30
2023-05-10T00:10:56.510Z,28.87
2023-05-10T00:13:18.275Z,25.63
2023-05-10T00:15:40.089Z,24.83
2023-05-10T00:18:01.811Z,24.53
2023-05-10T00:20:23.746Z,26.37
2023-05-10T00:22:45.397Z,25.17
2023-05-10T00:25:08.436Z,27.20
2023-05-10T00:27:30.350Z,25.53
2023-05-10T00:29:52.268Z,27.53
2023-05-10T00:32:14.988Z,25.57
2023-05-10T00:34:37.263Z,25.57
2023-05-10T00:36:59.036Z,25.20
2023-05-10T00:39:20.793Z,26.87
2023-05-10T00:41:42.505Z,26.13
2023-05-10T00:44:05.240Z,27.50
2023-05-10T00:46:27.903Z,28.10
2023-05-10T00:48:51.432Z,26.20
2023-05-10T00:51:14.856Z,27.65
2023-05-10T00:53:36.563Z,29.70
2023-05-10T00:55:58.340Z,29.27
2023-05-10T00:58:20.262Z,27.57
2023-05-10T01:00:45.864Z,33.60
2023-05-10T01:03:07.920Z,28.07
2023-05-10T01:05:29.842Z,31.90
2023-05-10T01:07:52.924Z,26.87
2023-05-10T01:10:15.503Z,33.47
2023-05-10T01:12:41.657Z,30.73
2023-05-10T01:15:06.081Z,29.77
2023-05-10T01:17:28.471Z,30.85
2023-05-10T01:19:52.334Z,32.70
2023-05-10T01:22:51.342Z,31.58
2023-05-10T01:25:52.842Z,28.97
2023-05-10T01:29:06.922Z,29.57
2023-05-10T01:31:54.790Z,30.27
2023-05-10T01:34:28.370Z,29.63
2023-05-10T01:37:03.924Z,28.43
2023-05-10T01:39:51.047Z,29.77
2023-05-10T01:42:21.116Z,34.37
2023-05-10T01:45:07.839Z,30.47
2023-05-10T01:47:43.432Z,38.00
2023-05-10T01:50:16.342Z,35.13
2023-05-10T01:52:44.833Z,37.43
2023-05-10T01:55:14.149Z,36.83
2023-05-10T01:57:43.077Z,35.93
2023-05-10T02:00:07.415Z,39.10
2023-05-10T02:02:43.269Z,38.43
2023-05-10T02:05:08.363Z,39.10
2023-05-10T02:07:31.937Z,43.63
2023-05-10T02:09:55.822Z,40.47
2023-05-10T02:12:19.872Z,40.90
2023-05-10T02:14:43.839Z,41.80
2023-05-10T02:17:10.167Z,41.22
2023-05-10T02:19:35.020Z,43.23
2023-05-10T02:21:58.351Z,42.17
2023-05-10T02:24:22.532Z,46.37
2023-05-10T02:26:47.823Z,48.58
2023-05-10T02:29:13.272Z,45.13
2023-05-10T02:31:36.722Z,46.27
2023-05-10T02:34:02.460Z,50.70
2023-05-10T02:38:50.770Z,48.57
2023-05-10T02:41:14.173Z,51.20
2023-05-10T02:43:40.700Z,53.75
2023-05-10T02:46:03.483Z,59.17
2023-05-10T02:48:25.714Z,63.07
2023-05-10T02:50:52.463Z,62.83
2023-05-10T02:53:27.985Z,66.10
2023-05-10T02:55:53.750Z,66.93
2023-05-10T02:58:15.670Z,67.50
2023-05-10T03:00:37.512Z,68.83
2023-05-10T03:03:01.015Z,63.80
2023-05-10T03:05:24.363Z,67.82
2023-05-10T03:07:47.351Z,65.90
2023-05-10T03:10:11.021Z,67.27
2023-05-10T03:13:01.490Z,72.70
2023-05-10T03:15:43.393Z,63.77
2023-05-10T03:18:19.331Z,72.30
2023-05-10T03:20:49.794Z,67.43
2023-05-10T03:23:20.639Z,67.07
2023-05-10T03:25:44.809Z,73.17
2023-05-10T03:28:07.466Z,67.50
2023-05-10T03:30:30.908Z,78.87
2023-05-10T03:32:52.811Z,72.63
2023-05-10T03:35:15.225Z,73.90
2023-05-10T03:37:37.350Z,70.30
2023-05-10T03:39:59.176Z,65.27
2023-05-10T03:42:20.928Z,73.60
2023-05-10T03:44:42.664Z,72.20
2023-05-10T03:47:04.922Z,67.23
2023-05-10T03:49:26.601Z,69.73
2023-05-10T03:51:48.304Z,71.37
2023-05-10T03:54:12.806Z,65.90
2023-05-10T03:56:34.473Z,66.80
2023-05-10T03:58:56.106Z,64.30
2023-05-10T04:01:18.386Z,70.77
2023-05-10T04:03:40.165Z,69.93
2023-05-10T04:06:03.172Z,69.07
2023-05-10T04:08:24.971Z,69.73
2023-05-10T04:10:46.611Z,67.17
2023-05-10T04:13:08.244Z,64.93
2023-05-10T04:15:30.064Z,73.90
2023-05-10T04:17:52.160Z,71.43
2023-05-10T04:20:14.614Z,69.77
2023-05-10T04:22:36.721Z,72.87
2023-05-10T04:24:58.387Z,73.57
2023-05-10T04:27:20.024Z,71.87
2023-05-10T04:29:42.161Z,70.83
2023-05-10T04:32:04.624Z,72.80
2023-05-10T04:34:26.604Z,67.57
2023-05-10T04:36:48.250Z,70.93
2023-05-10T04:39:10.889Z,69.70
2023-05-10T04:41:32.705Z,67.23
2023-05-10T04:43:54.435Z,69.53
2023-05-10T04:46:16.387Z,64.10
2023-05-10T04:48:38.039Z,63.73
2023-05-10T04:50:59.793Z,64.53
2023-05-10T04:53:21.588Z,59.70
2023-05-10T04:55:43.464Z,57.03
2023-05-10T04:58:05.534Z,57.83
2023-05-10T05:00:27.317Z,58.00
2023-05-10T05:02:49.144Z,57.57
2023-05-10T05:05:11.198Z,56.43
2023-05-10T05:07:33.047Z,56.50
2023-05-10T05:09:54.749Z,53.83
2023-05-10T05:12:16.478Z,58.03
2023-05-10T05:14:38.224Z,53.00
2023-05-10T05:17:00.025Z,55.43
2023-05-10T05:19:21.726Z,52.70
2023-05-10T05:21:43.538Z,52.00
2023-05-10T05:24:05.993Z,58.73
2023-05-10T05:26:27.886Z,55.83
2023-05-10T05:28:51.080Z,48.70
2023-05-10T05:31:13.072Z,48.10
2023-05-10T05:33:35.392Z,56.43
2023-05-10T05:35:57.107Z,54.43
2023-05-10T05:38:18.943Z,49.07
2023-05-10T05:40:40.618Z,51.67
2023-05-10T05:43:02.307Z,48.90
2023-05-10T05:45:24.077Z,47.87
2023-05-10T05:47:45.810Z,48.40
2023-05-10T05:50:08.154Z,49.07
2023-05-10T05:52:30.003Z,48.20
2023-05-10T05:54:51.834Z,46.13
2023-05-10T05:57:13.484Z,47.80
2023-05-10T05:59:35.096Z,48.40
2023-05-10T06:01:56.878Z,46.70
2023-05-10T06:04:18.643Z,50.30
2023-05-10T06:06:40.340Z,50.77
2023-05-10T06:09:02.069Z,49.53
2023-05-10T06:11:24.003Z,51.13
2023-05-10T06:13:45.720Z,52.80
2023-05-10T06:16:07.750Z,50.63
2023-05-10T06:18:29.536Z,47.20
2023-05-10T06:20:51.485Z,53.60
2023-05-10T06:23:13.271Z,49.70
2023-05-10T06:25:34.986Z,49.43
2023-05-10T06:27:58.898Z,50.37
2023-05-10T06:30:21.410Z,46.28
2023-05-10T06:32:44.916Z,50.93
2023-05-10T06:35:07.647Z,48.53
2023-05-10T06:37:29.485Z,48.47
2023-05-10T06:39:51.215Z,46.33
2023-05-10T06:42:12.984Z,45.27
2023-05-10T06:44:34.656Z,45.90
2023-05-10T06:46:56.850Z,43.10
2023-05-10T06:49:19.678Z,40.70
2023-05-10T06:51:41.694Z,41.53
2023-05-10T06:54:04.212Z,43.27
2023-05-10T06:56:25.888Z,41.97
2023-05-10T06:58:47.873Z,44.80
2023-05-10T07:01:09.869Z,42.33
2023-05-10T07:03:32.843Z,40.30
2023-05-10T07:05:54.612Z,41.33
2023-05-10T07:08:16.346Z,40.80
2023-05-10T07:10:38.146Z,44.27
2023-05-10T07:12:59.904Z,39.70
2023-05-10T07:15:22.039Z,41.90
2023-05-10T07:17:45.674Z,39.20
2023-05-10T07:20:09.066Z,38.13
2023-05-10T07:22:31.004Z,38.57
2023-05-10T07:24:52.736Z,36.20
2023-05-10T07:27:14.377Z,38.67
2023-05-10T07:29:37.229Z,38.60
2023-05-10T07:31:59.266Z,41.40
2023-05-10T07:34:21.008Z,38.67
2023-05-10T07:36:42.793Z,36.40
2023-05-10T07:39:04.857Z,38.50
2023-05-10T07:41:26.968Z,39.47
2023-05-10T07:43:48.657Z,40.87
2023-05-10T07:46:11.267Z,44.90
2023-05-10T07:48:33.127Z,40.13
2023-05-10T07:50:54.917Z,38.57
2023-05-10T07:53:16.723Z,39.83
2023-05-10T07:55:38.510Z,41.87
2023-05-10T07:58:02.117Z,45.80
2023-05-10T08:00:23.970Z,43.15
2023-05-10T08:02:46.097Z,44.23
2023-05-10T08:05:08.548Z,42.43
2023-05-10T08:07:30.394Z,44.97
2023-05-10T08:09:52.936Z,46.27
2023-05-10T08:12:14.642Z,43.10
2023-05-10T08:14:37.609Z,42.30
2023-05-10T08:16:59.351Z,44.10
2023-05-10T08:19:22.359Z,41.07
2023-05-10T08:21:44.304Z,43.00
2023-05-10T08:24:06.918Z,44.03
2023-05-10T08:26:28.643Z,43.53
2023-05-10T08:28:50.632Z,44.23
2023-05-10T08:31:12.937Z,39.63
2023-05-10T08:33:34.633Z,39.17
2023-05-10T08:35:56.421Z,37.07
2023-05-10T08:38:19.618Z,34.63
2023-05-10T08:40:44.536Z,32.30
2023-05-10T08:43:09.874Z,31.38
2023-05-10T08:45:37.741Z,29.43
2023-05-10T08:48:03.455Z,34.17
2023-05-10T08:50:27.166Z,33.20
2023-05-10T08:52:54.129Z,32.08
2023-05-10T08:55:17.746Z,29.97
2023-05-10T08:57:39.704Z,29.65
2023-05-10T09:00:03.547Z,31.10
2023-05-10T09:02:26.848Z,31.95
2023-05-10T09:04:50.286Z,32.53
2023-05-10T09:07:12.579Z,35.77
2023-05-10T09:09:36.531Z,32.67
2023-05-10T09:11:58.604Z,35.88
2023-05-10T09:14:22.157Z,37.03
2023-05-10T09:16:44.414Z,36.92
2023-05-10T09:19:08.302Z,37.80
2023-05-10T09:23:56.354Z,35.33
2023-05-10T09:26:23.602Z,33.95
2023-05-10T09:28:53.730Z,32.63
2023-05-10T09:31:15.912Z,34.50
2023-05-10T09:33:49.307Z,33.23
2023-05-10T09:36:11.311Z,32.07
2023-05-10T09:38:50.546Z,33.37
2023-05-10T09:41:29.105Z,32.73
2023-05-10T09:43:56.681Z,29.43
2023-05-10T09:46:18.517Z,27.97
2023-05-10T09:48:48.582Z,30.50
2023-05-10T09:51:11.258Z,31.63
2023-05-10T09:53:32.951Z,29.90
2023-05-10T09:55:54.610Z,32.03
2023-05-10T09:58:17.125Z,32.73
2023-05-10T10:00:52.753Z,32.30
2023-05-10T10:03:21.057Z,30.97
2023-05-10T10:05:44.797Z,29.80
2023-05-10T10:08:07.706Z,33.45
2023-05-10T10:10:30.739Z,26.07
2023-05-10T10:12:53.498Z,31.57
2023-05-10T10:15:16.935Z,29.63
2023-05-10T10:17:41.565Z,28.17
2023-05-10T10:20:04.532Z,26.80
2023-05-10T10:22:27.700Z,29.67
2023-05-10T10:24:50.341Z,30.13
2023-05-10T10:27:55.568Z,25.10
2023-05-10T10:30:49.318Z,27.88
2023-05-10T10:33:39.922Z,21.80
2023-05-10T10:36:04.925Z,27.60
2023-05-10T10:38:36.619Z,24.13
2023-05-10T10:41:27.658Z,25.47
2023-05-10T10:43:49.345Z,25.67
2023-05-10T10:46:20.463Z,23.33
2023-05-10T10:49:09.013Z,22.00
2023-05-10T10:51:32.261Z,23.10
2023-05-10T10:53:55.197Z,22.53
2023-05-10T10:56:24.563Z,22.43
2023-05-10T10:58:54.914Z,24.30
2023-05-10T11:01:19.652Z,22.07
2023-05-10T11:03:42.660Z,22.00
2023-05-10T11:06:04.455Z,26.33
2023-05-10T11:08:31.756Z,24.10
2023-05-10T11:11:04.690Z,24.43
2023-05-10T11:13:47.763Z,22.77
2023-05-10T11:16:24.744Z,21.60
2023-05-10T11:19:10.496Z,23.20
2023-05-10T11:21:34.261Z,27.47
2023-05-10T11:23:59.638Z,23.27
2023-05-10T11:26:24.223Z,22.57
2023-05-10T11:28:48.556Z,25.10
2023-05-10T11:31:11.037Z,20.55
2023-05-10T11:33:54.809Z,17.03
2023-05-10T11:36:26.900Z,15.50
2023-05-10T11:38:49.668Z,17.17
2023-05-10T11:41:13.339Z,17.13
2023-05-10T11:43:35.247Z,15.63
2023-05-10T11:45:58.519Z,15.87
2023-05-10T11:48:23.516Z,17.37
2023-05-10T11:50:45.496Z,15.30
2023-05-10T11:53:07.442Z,14.17
2023-05-10T11:55:31.385Z,16.03
2023-05-10T11:57:55.405Z,14.48
2023-05-10T12:00:17.723Z,13.77
2023-05-10T12:02:40.800Z,13.97
2023-05-10T12:05:06.342Z,15.73
2023-05-10T12:07:28.341Z,17.60
2023-05-10T12:10:13.246Z,14.20
2023-05-10T12:12:43.478Z,15.90
2023-05-10T12:15:11.735Z,14.30
2023-05-10T12:17:33.505Z,16.37
2023-05-10T12:19:55.887Z,15.73
2023-05-10T12:22:22.274Z,15.87
2023-05-10T12:24:46.614Z,16.07
2023-05-10T12:27:13.375Z,15.23
2023-05-10T12:29:35.208Z,15.27
2023-05-10T12:32:00.023Z,14.53
2023-05-10T12:34:37.031Z,11.47
2023-05-10T12:37:00.078Z,12.87
2023-05-10T12:39:22.042Z,17.33
2023-05-10T12:41:43.897Z,14.30
2023-05-10T12:44:05.848Z,16.13
2023-05-10T12:46:28.768Z,16.93
2023-05-10T12:49:07.591Z,16.70
2023-05-10T12:51:32.274Z,13.93
2023-05-10T12:53:54.088Z,14.13
2023-05-10T12:56:16.206Z,15.97
2023-05-10T12:58:39.921Z,17.83
2023-05-10T13:01:02.324Z,13.10
2023-05-10T13:03:24.272Z,15.63
2023-05-10T13:05:46.452Z,15.00
2023-05-10T13:08:08.740Z,14.57
2023-05-10T13:10:31.776Z,13.03
2023-05-10T13:12:53.732Z,12.87
2023-05-10T13:15:15.559Z,14.07
2023-05-10T13:17:39.949Z,14.73
2023-05-10T13:20:02.012Z,13.75
2023-05-10T13:22:36.465Z,14.93
2023-05-10T13:25:01.883Z,15.87
2023-05-10T13:27:24.732Z,17.47
2023-05-10T13:29:48.572Z,16.53
2023-05-10T13:34:33.002Z,15.60
2023-05-10T13:36:56.743Z,16.30
2023-05-10T13:39:18.384Z,17.40
2023-05-10T13:41:40.651Z,16.20
2023-05-10T13:44:02.545Z,17.10
2023-05-10T13:46:24.465Z,17.33
2023-05-10T13:48:46.466Z,15.70
2023-05-10T13:51:08.217Z,16.77
2023-05-10T13:53:30.072Z,13.63
2023-05-10T13:55:51.815Z,13.90
2023-05-10T13:58:13.510Z,15.23
2023-05-10T14:00:35.262Z,13.43
2023-05-10T14:02:57.579Z,15.40
2023-05-10T14:05:22.360Z,12.47
2023-05-10T14:07:47.616Z,6.23
2023-05-10T14:10:10.094Z,7.53
2023-05-10T14:12:31.835Z,5.63
2023-05-10T14:14:53.581Z,5.00
2023-05-10T14:17:15.325Z,4.57
2023-05-10T14:19:37.187Z,4.87
2023-05-10T14:21:58.870Z,4.83
2023-05-10T14:24:20.509Z,4.77
2023-05-10T14:26:42.219Z,4.17
2023-05-10T14:29:04.268Z,4.00
2023-05-10T14:31:26.907Z,4.80
2023-05-10T14:33:48.706Z,4.30
2023-05-10T14:36:11.213Z,4.57
2023-05-10T14:38:32.997Z,4.20
2023-05-10T14:40:55.036Z,3.65
2023-05-10T14:43:16.917Z,4.10
2023-05-10T14:45:38.697Z,3.65
2023-05-10T14:48:05.588Z,3.00
2023-05-10T14:50:36.687Z,3.15
2023-05-10T14:53:00.170Z,4.63
2023-05-10T14:55:22.246Z,4.95
2023-05-10T14:57:45.213Z,4.50
2023-05-10T15:00:08.229Z,5.37
2023-05-10T15:02:32.824Z,6.73
2023-05-10T15:04:55.114Z,6.83
2023-05-10T15:07:19.234Z,6.97
2023-05-10T15:09:41.630Z,7.22
2023-05-10T15:12:03.666Z,7.67
2023-05-10T15:14:25.911Z,7.43
2023-05-10T15:16:48.353Z,8.33
2023-05-10T15:19:10.016Z,8.57
2023-05-10T15:21:36.243Z,6.30
2023-05-10T15:23:58.598Z,6.20
2023-05-10T15:26:23.149Z,7.13
2023-05-10T15:28:45.094Z,7.97
2023-05-10T15:31:08.040Z,9.73
2023-05-10T15:33:30.257Z,10.13
2023-05-10T15:35:55.195Z,9.87
2023-05-10T15:38:20.822Z,11.07
2023-05-10T15:40:43.901Z,11.53
2023-05-10T15:43:06.859Z,12.43
2023-05-10T15:45:29.047Z,12.90
2023-05-10T15:47:51.781Z,13.33
2023-05-10T15:50:14.023Z,12.83
2023-05-10T15:52:36.292Z,12.33
2023-05-10T15:54:58.098Z,14.77
2023-05-10T15:57:19.960Z,14.37
2023-05-10T15:59:42.854Z,16.13
2023-05-10T16:02:07.373Z,14.80
2023-05-10T16:04:29.165Z,14.73
2023-05-10T16:06:51.089Z,14.57
2023-05-10T16:09:12.970Z,15.13
2023-05-10T16:11:34.814Z,15.33
2023-05-10T16:13:56.861Z,16.00
2023-05-10T16:16:18.750Z,16.27
2023-05-10T16:18:40.523Z,16.00
2023-05-10T16:21:02.524Z,14.40
2023-05-10T16:23:24.548Z,16.43
2023-05-10T16:25:47.345Z,16.90
2023-05-10T16:28:09.676Z,18.00
2023-05-10T16:30:31.561Z,18.87
2023-05-10T16:32:54.851Z,19.10
2023-05-10T16:35:17.356Z,18.53
2023-05-10T16:37:39.434Z,19.50
2023-05-10T16:40:01.507Z,18.73
2023-05-10T16:42:24.149Z,18.23
2023-05-10T16:44:45.958Z,20.03
2023-05-10T16:47:07.710Z,18.37
2023-05-10T16:49:29.546Z,17.43
2023-05-10T16:51:51.434Z,18.13
2023-05-10T16:54:13.197Z,17.73
2023-05-10T16:56:34.904Z,19.20
2023-05-10T16:58:56.711Z,18.43
2023-05-10T17:01:18.588Z,18.17
2023-05-10T17:03:40.606Z,17.37
2023-05-10T17:06:02.968Z,17.60
2023-05-10T17:08:24.688Z,16.77
2023-05-10T17:10:46.885Z,17.07
2023-05-10T17:13:10.401Z,17.10
2023-05-10T17:15:32.648Z,17.10
2023-05-10T17:17:55.488Z,18.03
2023-05-10T17:20:17.670Z,18.47
2023-05-10T17:22:39.627Z,19.90
2023-05-10T17:25:01.415Z,18.60
2023-05-10T17:27:23.084Z,17.60
2023-05-10T17:29:44.891Z,17.33
2023-05-10T17:32:09.044Z,19.60
2023-05-10T17:34:30.809Z,17.92
2023-05-10T17:36:52.487Z,18.17
2023-05-10T17:39:14.233Z,17.37
2023-05-10T17:41:35.957Z,19.77
2023-05-10T17:43:57.671Z,18.40
2023-05-10T17:46:19.448Z,18.67
2023-05-10T17:48:41.936Z,19.27
2023-05-10T17:51:04.524Z,18.10
2023-05-10T17:53:26.266Z,19.40
2023-05-10T17:55:48.261Z,21.03
2023-05-10T17:58:12.278Z,20.30
2023-05-10T18:00:35.917Z,21.90
2023-05-10T18:02:57.728Z,22.27
2023-05-10T18:05:19.798Z,20.73
2023-05-10T18:07:41.816Z,22.23
2023-05-10T18:10:03.806Z,21.63
2023-05-10T18:12:25.508Z,21.33
2023-05-10T18:14:47.201Z,23.23
2023-05-10T18:17:09.988Z,20.43
2023-05-10T18:19:31.848Z,21.93
2023-05-10T18:21:53.738Z,23.00
2023-05-10T18:24:16.847Z,24.03
2023-05-10T18:26:42.854Z,23.17
2023-05-10T18:29:04.653Z,22.73
2023-05-10T18:31:26.860Z,24.90
2023-05-10T18:33:48.860Z,24.27
2023-05-10T18:36:11.055Z,25.97
2023-05-10T18:38:33.201Z,24.40
2023-05-10T18:40:55.343Z,25.37
2023-05-10T18:43:17.014Z,26.63
2023-05-10T18:45:39.603Z,29.37
2023-05-10T18:48:01.981Z,28.07
2023-05-10T18:50:23.777Z,26.23
2023-05-10T18:52:46.393Z,27.40
2023-05-10T18:55:08.948Z,24.73
2023-05-10T18:57:30.663Z,26.07
2023-05-10T18:59:52.343Z,27.63
2023-05-10T19:02:14.198Z,25.87
2023-05-10T19:04:36.066Z,29.13
2023-05-10T19:06:57.729Z,24.97
2023-05-10T19:09:20.223Z,28.23
2023-05-10T19:11:43.268Z,28.43
2023-05-10T19:14:05.843Z,27.97
2023-05-10T19:16:30.563Z,27.00
2023-05-10T19:18:52.674Z,23.70
2023-05-10T19:21:15.211Z,24.07
2023-05-10T19:23:39.717Z,20.93
2023-05-10T19:26:01.857Z,18.30
2023-05-10T19:28:23.770Z,15.17
2023-05-10T19:30:45.652Z,16.73
2023-05-10T19:33:07.380Z,15.53
2023-05-10T19:35:29.157Z,15.13
2023-05-10T19:37:50.895Z,15.03
2023-05-10T19:40:17.479Z,15.93
2023-05-10T19:42:39.305Z,14.43
2023-05-10T19:45:01.065Z,15.30
2023-05-10T19:47:22.995Z,12.77
2023-05-10T19:49:44.816Z,14.10
2023-05-10T19:52:07.906Z,13.07
2023-05-10T19:54:29.610Z,12.63
2023-05-10T19:56:51.229Z,13.13
2023-05-10T19:59:13.366Z,12.93
2023-05-10T20:01:35.471Z,13.17
2023-05-10T20:03:57.430Z,12.83
2023-05-10T20:06:19.206Z,12.07
2023-05-10T20:08:40.855Z,10.67
2023-05-10T20:11:03.842Z,11.80
2023-05-10T20:13:25.666Z,10.27
2023-05-10T20:15:47.448Z,11.13
2023-05-10T20:18:09.162Z,11.03
2023-05-10T20:20:31.076Z,11.00
2023-05-10T20:22:52.930Z,11.40
2023-05-10T20:25:15.989Z,12.27
2023-05-10T20:27:38.284Z,12.07
2023-05-10T20:29:59.981Z,11.40
2023-05-10T20:32:21.932Z,11.40
2023-05-10T20:34:44.438Z,11.57
2023-05-10T20:37:06.657Z,11.37
2023-05-10T20:39:29.344Z,11.93
2023-05-10T20:41:54.665Z,12.23
2023-05-10T20:44:16.412Z,13.90
2023-05-10T20:46:38.181Z,11.07
2023-05-10T20:49:00.151Z,14.20
2023-05-10T20:51:21.840Z,15.50
2023-05-10T20:53:43.589Z,15.43
2023-05-10T20:56:05.586Z,14.43
2023-05-10T20:58:27.317Z,18.30
2023-05-10T21:00:49.259Z,20.83
2023-05-10T21:03:11.169Z,17.53
2023-05-10T21:05:33.018Z,17.80
2023-05-10T21:07:55.280Z,17.40
2023-05-10T21:10:17.259Z,18.47
2023-05-10T21:12:39.518Z,17.23
2023-05-10T21:15:01.400Z,19.97
2023-05-10T21:17:23.374Z,20.07
2023-05-10T21:19:45.155Z,19.80
2023-05-10T21:22:07.804Z,22.10
2023-05-10T21:24:29.459Z,19.57
2023-05-10T21:26:51.221Z,21.30
2023-05-10T21:29:12.901Z,21.07
2023-05-10T21:31:34.728Z,21.70
2023-05-10T21:33:57.157Z,22.30
2023-05-10T21:36:18.874Z,20.63
2023-05-10T21:38:44.286Z,20.60
2023-05-10T21:41:09.290Z,21.83
2023-05-10T21:43:31.640Z,20.57
2023-05-10T21:45:53.562Z,22.73
2023-05-10T21:48:15.528Z,20.30
2023-05-10T21:50:37.308Z,19.67
2023-05-10T21:52:59.519Z,21.83
2023-05-10T21:55:21.909Z,20.73
2023-05-10T21:57:45.018Z,23.17
2023-05-10T22:00:08.842Z,21.13
2023-05-10T22:02:31.381Z,20.52
2023-05-10T22:04:53.634Z,20.80
2023-05-10T22:07:16.930Z,20.37
2023-05-10T22:09:38.621Z,21.47
2023-05-10T22:12:00.402Z,21.40
2023-05-10T22:14:23.020Z,21.73
2023-05-10T22:16:44.791Z,22.17
2023-05-10T22:19:06.680Z,21.47
2023-05-10T22:21:28.387Z,20.87
2023-05-10T22:23:50.016Z,23.27
2023-05-10T22:26:11.951Z,20.23
2023-05-10T22:28:33.788Z,19.80
2023-05-10T22:30:56.177Z,22.33
2023-05-10T22:33:17.927Z,22.43
2023-05-10T22:35:40.769Z,21.30
2023-05-10T22:38:03.266Z,24.60
2023-05-10T22:40:25.229Z,25.63
2023-05-10T22:42:47.145Z,20.47
2023-05-10T22:45:09.750Z,25.03
2023-05-10T22:47:32.203Z,24.73
2023-05-10T22:49:55.500Z,27.17
2023-05-10T22:52:18.111Z,26.50
2023-05-10T22:54:40.771Z,24.23
2023-05-10T22:57:03.155Z,24.47
2023-05-10T22:59:24.989Z,27.63
2023-05-10T23:01:48.930Z,25.33
2023-05-10T23:04:11.398Z,23.60
2023-05-10T23:06:33.312Z,30.97
2023-05-10T23:08:55.535Z,26.23
2023-05-10T23:11:18.847Z,22.77
2023-05-10T23:13:40.972Z,25.07
2023-05-10T23:16:07.604Z,26.47
2023-05-10T23:18:29.959Z,25.57
2023-05-10T23:20:53.585Z,28.33
2023-05-10T23:23:16.115Z,28.50
2023-05-10T23:25:38.115Z,28.37
2023-05-10T23:28:00.197Z,25.37
2023-05-10T23:30:22.373Z,26.40
2023-05-10T23:32:44.344Z,28.33
2023-05-10T23:35:07.063Z,29.17
2023-05-10T23:37:29.068Z,28.70
2023-05-10T23:39:50.990Z,30.73
2023-05-10T23:42:12.627Z,27.83
2023-05-10T23:44:34.317Z,29.80
2023-05-10T23:46:56.118Z,29.70
2023-05-10T23:49:18.349Z,30.77
2023-05-10T23:51:40.050Z,30.00
2023-05-10T23:54:02.156Z,31.63
2023-05-10T23:56:24.001Z,32.63
2023-05-10T23:58:46.395Z,30.23
